createdAt,value
2018-12-21T00:00:43.134Z,6.33
2018-12-21T00:03:14.443Z,6.57
2018-12-21T00:05:45.358Z,6.90
2018-12-21T00:08:23.096Z,9.37
2018-12-21T00:10:54.874Z,11.53
2018-12-21T00:13:25.821Z,5.10
2018-12-21T00:15:56.858Z,8.87
2018-12-21T00:18:27.949Z,8.63
2018-12-21T00:20:58.833Z,4.20
2018-12-21T00:23:30.554Z,6.80
2018-12-21T00:26:01.540Z,10.70
2018-12-21T00:28:32.475Z,9.53
2018-12-21T00:31:08.719Z,6.73
2018-12-21T00:33:45.172Z,6.33
2018-12-21T00:36:21.468Z,4.73
2018-12-21T00:38:57.965Z,7.20
2018-12-21T00:41:28.240Z,5.70
2018-12-21T00:44:34.098Z,4.47
2018-12-21T00:47:10.441Z,7.00
2018-12-21T00:49:41.790Z,4.70
2018-12-21T00:52:12.754Z,7.60
2018-12-21T00:54:43.993Z,4.93
2018-12-21T00:57:15.189Z,9.17
2018-12-21T00:59:46.377Z,11.77
2018-12-21T01:02:17.525Z,7.83
2018-12-21T01:04:48.720Z,4.47
2018-12-21T01:07:19.899Z,5.50
2018-12-21T01:09:51.002Z,5.00
2018-12-21T01:12:22.395Z,6.87
2018-12-21T01:14:53.545Z,5.13
2018-12-21T01:17:24.649Z,8.30
2018-12-21T01:19:55.859Z,9.17
2018-12-21T01:22:26.804Z,3.77
2018-12-21T01:24:58.037Z,5.67
2018-12-21T01:27:29.309Z,4.70
2018-12-21T01:30:01.101Z,8.87
2018-12-21T01:32:32.233Z,4.07
2018-12-21T01:35:03.430Z,6.80
2018-12-21T01:37:34.548Z,5.87
2018-12-21T01:40:06.154Z,3.97
2018-12-21T01:42:37.102Z,7.83
2018-12-21T01:45:08.482Z,7.13
2018-12-21T01:47:39.608Z,4.07
2018-12-21T01:50:10.827Z,5.23
2018-12-21T01:52:41.825Z,6.90
2018-12-21T01:55:13.043Z,4.70
2018-12-21T01:57:43.953Z,8.37
2018-12-21T02:00:15.363Z,3.43
2018-12-21T02:02:46.299Z,3.03
2018-12-21T02:05:17.421Z,13.33
2018-12-21T02:07:48.625Z,4.33
2018-12-21T02:10:19.752Z,2.97
2018-12-21T02:12:50.944Z,4.27
2018-12-21T02:15:22.005Z,2.67
2018-12-21T02:17:52.981Z,2.90
2018-12-21T02:20:24.127Z,5.43
2018-12-21T02:22:55.287Z,4.13
2018-12-21T02:25:27.055Z,2.50
2018-12-21T02:27:57.983Z,3.13
2018-12-21T02:30:29.339Z,2.67
2018-12-21T02:33:00.316Z,5.90
2018-12-21T02:35:32.119Z,4.03
2018-12-21T02:38:03.067Z,1.80
2018-12-21T02:40:34.190Z,6.97
2018-12-21T02:43:05.648Z,4.47
2018-12-21T02:45:36.551Z,3.60
2018-12-21T02:48:07.849Z,2.37
2018-12-21T02:50:38.855Z,3.07
2018-12-21T02:53:10.551Z,4.67
2018-12-21T02:55:41.456Z,0.80
2018-12-21T02:58:12.472Z,1.37
2018-12-21T03:00:44.048Z,2.07
2018-12-21T03:03:14.983Z,2.37
2018-12-21T03:05:46.091Z,3.03
2018-12-21T03:08:17.057Z,5.27
2018-12-21T03:10:49.311Z,2.70
2018-12-21T03:13:20.541Z,4.20
2018-12-21T03:15:51.496Z,3.30
2018-12-21T03:18:22.630Z,4.17
2018-12-21T03:20:54.115Z,3.63
2018-12-21T03:23:25.068Z,3.10
2018-12-21T03:25:56.249Z,5.20
2018-12-21T03:28:27.187Z,4.37
2018-12-21T03:31:05.022Z,2.20
2018-12-21T03:33:36.241Z,3.80
2018-12-21T03:36:07.800Z,5.17
2018-12-21T03:38:38.949Z,3.67
2018-12-21T03:41:10.811Z,2.93
2018-12-21T03:43:41.979Z,3.10
2018-12-21T03:46:13.026Z,3.30
2018-12-21T03:48:43.967Z,5.00
2018-12-21T03:51:14.985Z,6.17
2018-12-21T03:53:46.105Z,3.27
2018-12-21T03:56:17.075Z,1.60
2018-12-21T03:58:48.009Z,3.70
2018-12-21T04:01:18.961Z,2.07
2018-12-21T04:03:50.041Z,2.43
2018-12-21T04:06:21.219Z,1.70
2018-12-21T04:08:52.233Z,1.93
2018-12-21T04:11:23.252Z,1.50
2018-12-21T04:13:54.525Z,1.60
2018-12-21T04:16:25.656Z,2.13
2018-12-21T04:18:56.769Z,1.33
2018-12-21T04:21:27.984Z,2.17
2018-12-21T04:23:59.184Z,0.80
2018-12-21T04:26:30.180Z,1.33
2018-12-21T04:29:01.186Z,3.83
2018-12-21T04:31:32.153Z,1.60
2018-12-21T04:34:03.174Z,1.27
2018-12-21T04:36:34.108Z,0.97
2018-12-21T04:39:06.935Z,3.20
2018-12-21T04:41:38.011Z,0.50
2018-12-21T04:44:09.645Z,0.83
2018-12-21T04:46:40.629Z,1.67
2018-12-21T04:49:11.712Z,2.30
2018-12-21T04:51:42.689Z,2.40
2018-12-21T04:54:13.616Z,0.30
2018-12-21T04:56:44.594Z,1.03
2018-12-21T04:59:15.529Z,1.10
2018-12-21T05:01:46.596Z,1.57
2018-12-21T05:04:20.297Z,2.03
2018-12-21T05:06:50.495Z,1.90
2018-12-21T05:09:21.472Z,1.33
2018-12-21T05:11:52.438Z,0.80
2018-12-21T05:14:23.562Z,0.53
2018-12-21T05:16:54.633Z,1.70
2018-12-21T05:19:25.853Z,0.40
2018-12-21T05:21:57.008Z,0.67
2018-12-21T05:24:28.033Z,2.27
2018-12-21T05:26:59.327Z,0.83
2018-12-21T05:29:30.528Z,1.53
2018-12-21T05:32:01.921Z,1.73
2018-12-21T05:34:32.831Z,1.17
2018-12-21T05:37:04.047Z,0.90
2018-12-21T05:39:35.299Z,2.30
2018-12-21T05:42:06.273Z,1.53
2018-12-21T05:44:37.146Z,0.83
2018-12-21T05:47:08.148Z,3.03
2018-12-21T05:49:39.201Z,2.90
2018-12-21T05:52:10.378Z,1.23
2018-12-21T05:54:41.277Z,1.00
2018-12-21T05:57:12.528Z,2.23
2018-12-21T05:59:43.540Z,1.10
2018-12-21T06:02:14.488Z,0.97
2018-12-21T06:04:45.897Z,0.57
2018-12-21T06:07:17.208Z,0.73
2018-12-21T06:09:48.350Z,0.83
2018-12-21T06:12:19.371Z,0.70
2018-12-21T06:14:50.333Z,1.67
2018-12-21T06:17:21.287Z,0.97
2018-12-21T06:19:52.345Z,0.73
2018-12-21T06:22:23.505Z,1.30
2018-12-21T06:24:54.441Z,0.57
2018-12-21T06:27:25.567Z,0.50
2018-12-21T06:29:56.625Z,0.77
2018-12-21T06:32:27.915Z,0.23
2018-12-21T06:34:58.852Z,0.60
2018-12-21T06:37:30.925Z,0.60
2018-12-21T06:40:01.866Z,0.93
2018-12-21T06:42:32.807Z,0.53
2018-12-21T06:45:04.253Z,1.00
2018-12-21T06:47:35.202Z,1.80
2018-12-21T06:50:07.150Z,0.77
2018-12-21T06:52:38.343Z,0.90
2018-12-21T06:55:09.402Z,0.40
2018-12-21T06:57:40.646Z,0.60
2018-12-21T07:00:13.088Z,0.30
2018-12-21T07:02:44.346Z,0.50
2018-12-21T07:05:15.469Z,0.60
2018-12-21T07:07:46.417Z,0.83
2018-12-21T07:10:17.461Z,0.30
2018-12-21T07:12:48.720Z,0.63
2018-12-21T07:15:19.776Z,0.20
2018-12-21T07:17:50.936Z,0.40
2018-12-21T07:20:22.069Z,0.87
2018-12-21T07:22:53.205Z,1.77
2018-12-21T07:25:24.450Z,0.63
2018-12-21T07:27:55.585Z,0.40
2018-12-21T07:30:26.751Z,1.13
2018-12-21T07:32:58.067Z,0.40
2018-12-21T07:35:29.012Z,0.40
2018-12-21T07:37:59.974Z,1.47
2018-12-21T07:40:30.918Z,2.57
2018-12-21T07:43:01.870Z,2.03
2018-12-21T07:45:32.835Z,1.03
2018-12-21T07:48:03.987Z,0.80
2018-12-21T07:50:35.259Z,0.40
2018-12-21T07:53:06.411Z,0.50
2018-12-21T07:55:37.426Z,0.40
2018-12-21T07:58:08.703Z,3.40
2018-12-21T08:00:39.586Z,1.90
2018-12-21T08:03:10.767Z,0.10
2018-12-21T08:05:41.657Z,1.00
2018-12-21T08:08:12.590Z,0.43
2018-12-21T08:10:43.498Z,0.47
2018-12-21T08:13:14.414Z,1.50
2018-12-21T08:15:45.915Z,0.87
2018-12-21T08:18:17.184Z,1.20
2018-12-21T08:20:48.267Z,0.93
2018-12-21T08:23:19.456Z,1.23
2018-12-21T08:25:50.657Z,0.20
2018-12-21T08:28:21.840Z,0.20
2018-12-21T08:30:52.965Z,0.30
2018-12-21T08:33:24.063Z,0.00
2018-12-21T08:35:54.968Z,0.93
2018-12-21T08:38:26.615Z,2.00
2018-12-21T08:40:58.561Z,3.40
2018-12-21T08:43:29.488Z,0.10
2018-12-21T08:46:00.515Z,1.60
2018-12-21T08:48:31.436Z,0.03
2018-12-21T08:51:02.335Z,1.60
2018-12-21T08:53:33.938Z,0.53
2018-12-21T08:56:04.845Z,1.23
2018-12-21T08:58:35.866Z,1.13
2018-12-21T09:01:06.938Z,1.50
2018-12-21T09:03:38.694Z,0.30
2018-12-21T09:06:18.294Z,1.37
2018-12-21T09:08:43.031Z,0.70
2018-12-21T09:11:14.027Z,1.07
2018-12-21T09:13:44.949Z,2.07
2018-12-21T09:16:16.146Z,1.30
2018-12-21T09:18:47.093Z,0.60
2018-12-21T09:21:19.340Z,1.83
2018-12-21T09:23:50.497Z,3.47
2018-12-21T09:26:21.767Z,0.20
2018-12-21T09:28:52.785Z,2.03
2018-12-21T09:31:24.033Z,0.00
2018-12-21T09:33:55.062Z,0.17
2018-12-21T09:36:25.988Z,2.63
2018-12-21T09:38:56.918Z,1.37
2018-12-21T09:41:27.800Z,1.33
2018-12-21T09:43:58.886Z,1.70
2018-12-21T09:46:30.084Z,2.77
2018-12-21T09:49:01.126Z,2.17
2018-12-21T09:51:32.147Z,2.60
2018-12-21T09:54:09.896Z,1.80
2018-12-21T09:56:35.993Z,2.17
2018-12-21T09:59:08.075Z,1.87
2018-12-21T10:01:39.241Z,3.27
2018-12-21T10:04:10.163Z,2.23
2018-12-21T10:06:41.411Z,2.07
2018-12-21T10:09:12.623Z,1.57
2018-12-21T10:11:43.605Z,5.67
2018-12-21T10:14:14.532Z,4.53
2018-12-21T10:16:45.416Z,2.00
2018-12-21T10:19:17.192Z,5.33
2018-12-21T10:21:48.145Z,1.33
2018-12-21T10:24:19.237Z,3.83
2018-12-21T10:26:50.366Z,1.53
2018-12-21T10:29:21.296Z,3.00
2018-12-21T10:31:52.867Z,3.50
2018-12-21T10:34:23.918Z,4.20
2018-12-21T10:36:55.105Z,3.03
2018-12-21T10:39:26.211Z,2.50
2018-12-21T10:41:57.428Z,2.30
2018-12-21T10:44:29.022Z,7.67
2018-12-21T10:47:00.133Z,6.97
2018-12-21T10:49:32.080Z,6.90
2018-12-21T10:52:03.084Z,4.97
2018-12-21T10:54:34.096Z,5.57
2018-12-21T10:57:05.120Z,6.67
2018-12-21T10:59:43.168Z,4.57
2018-12-21T11:02:09.191Z,7.23
2018-12-21T11:04:40.246Z,7.77
2018-12-21T11:07:11.136Z,9.47
2018-12-21T11:09:42.077Z,6.33
2018-12-21T11:12:12.991Z,9.63
2018-12-21T11:14:43.945Z,8.03
2018-12-21T11:17:15.114Z,15.40
2018-12-21T11:19:46.012Z,14.33
2018-12-21T11:22:17.192Z,8.97
2018-12-21T16:52:10.330Z,38.60
2018-12-21T16:54:44.994Z,42.77
2018-12-21T16:57:19.546Z,37.00
2018-12-21T17:00:25.555Z,45.27
2018-12-21T17:02:56.756Z,37.60
2018-12-21T17:05:34.575Z,29.13
2018-12-21T17:08:05.620Z,38.07
2018-12-21T17:10:36.741Z,40.50
2018-12-21T17:13:07.797Z,38.20
2018-12-21T17:15:38.808Z,50.27
2018-12-21T17:18:09.804Z,25.23
2018-12-21T17:20:40.819Z,36.30
2018-12-21T17:23:11.810Z,31.03
2018-12-21T17:25:42.907Z,37.30
2018-12-21T17:28:13.877Z,35.70
2018-12-21T17:30:44.869Z,43.13
2018-12-21T17:33:16.003Z,32.07
2018-12-21T17:35:47.109Z,34.90
2018-12-21T17:38:18.120Z,33.20
2018-12-21T17:40:49.148Z,38.50
2018-12-21T17:43:20.158Z,33.23
2018-12-21T17:45:51.194Z,36.73
2018-12-21T17:48:22.346Z,38.07
2018-12-21T17:50:53.361Z,39.73
2018-12-21T17:53:24.427Z,49.47
2018-12-21T17:55:55.507Z,45.50
2018-12-21T17:58:26.518Z,39.67
2018-12-21T18:00:57.563Z,41.53
2018-12-21T18:03:35.961Z,53.93
2018-12-21T18:06:06.984Z,28.87
2018-12-21T18:08:38.007Z,36.47
2018-12-21T18:11:09.055Z,53.70
2018-12-21T18:13:40.075Z,42.20
2018-12-21T18:16:11.262Z,41.80
2018-12-21T18:18:42.257Z,39.30
2018-12-21T18:21:13.306Z,36.70
2018-12-21T18:23:46.590Z,35.20
2018-12-21T18:26:17.706Z,38.57
2018-12-21T18:28:49.136Z,45.17
2018-12-21T18:31:26.247Z,39.97
2018-12-21T18:33:57.962Z,43.37
2018-12-21T18:36:28.991Z,32.13
2018-12-21T18:39:00.002Z,37.17
2018-12-21T18:41:31.076Z,39.00
2018-12-21T18:44:02.052Z,38.87
2018-12-21T18:46:33.029Z,44.10
2018-12-21T18:49:04.151Z,37.33
2018-12-21T18:51:35.179Z,41.93
2018-12-21T18:54:06.639Z,45.63
2018-12-21T18:56:47.325Z,31.27
2018-12-21T18:59:18.262Z,37.20
2018-12-21T19:01:49.270Z,54.60
2018-12-21T19:04:26.724Z,40.20
2018-12-21T19:06:57.746Z,31.03
2018-12-21T19:09:28.985Z,30.20
2018-12-21T19:11:59.986Z,47.43
2018-12-21T19:14:31.025Z,35.67
2018-12-21T19:17:02.068Z,36.73
2018-12-21T19:19:33.071Z,43.50
2018-12-21T19:22:04.199Z,39.83
2018-12-21T19:24:35.207Z,44.90
2018-12-21T19:27:06.293Z,40.37
2018-12-21T19:29:37.353Z,36.10
2018-12-21T19:32:08.347Z,40.93
2018-12-21T19:34:39.405Z,41.93
2018-12-21T19:37:10.426Z,40.47
2018-12-21T19:39:41.449Z,27.07
2018-12-21T19:42:12.523Z,48.37
2018-12-21T19:44:43.531Z,37.57
2018-12-21T19:47:15.206Z,39.87
2018-12-21T19:49:46.391Z,40.30
2018-12-21T19:52:17.442Z,41.07
2018-12-21T19:54:54.164Z,44.40
2018-12-21T19:57:25.744Z,34.57
2018-12-21T19:59:56.764Z,36.03
2018-12-21T20:02:27.780Z,37.17
2018-12-21T20:04:58.825Z,43.43
2018-12-21T20:07:29.852Z,41.83
2018-12-21T20:10:00.962Z,41.80
2018-12-21T20:12:31.956Z,44.17
2018-12-21T20:15:03.083Z,43.43
2018-12-21T20:17:34.094Z,44.07
2018-12-21T20:20:05.988Z,43.37
2018-12-21T20:22:37.028Z,50.93
2018-12-21T20:25:09.533Z,39.83
2018-12-21T20:27:41.271Z,39.87
2018-12-21T20:30:15.516Z,40.73
2018-12-21T20:32:46.495Z,38.27
2018-12-21T20:35:17.569Z,44.33
2018-12-21T20:37:48.755Z,41.70
2018-12-21T20:40:19.759Z,45.40
2018-12-21T20:42:50.755Z,37.27
2018-12-21T20:45:21.773Z,40.80
2018-12-21T20:47:52.854Z,31.63
2018-12-21T20:50:23.835Z,42.07
2018-12-21T20:52:54.860Z,36.73
2018-12-21T20:55:25.899Z,44.93
2018-12-21T20:58:02.632Z,30.77
2018-12-21T21:00:33.678Z,34.57
2018-12-21T21:03:05.040Z,39.20
2018-12-21T21:05:36.147Z,40.77
2018-12-21T21:08:07.261Z,35.13
2018-12-21T21:10:38.283Z,30.43
2018-12-21T21:13:09.468Z,45.37
2018-12-21T21:15:40.504Z,32.13
2018-12-21T21:18:11.525Z,37.30
2018-12-21T21:20:42.541Z,34.50
2018-12-21T21:23:13.678Z,26.83
2018-12-21T21:25:44.682Z,37.73
2018-12-21T21:28:16.406Z,36.37
2018-12-21T21:30:47.593Z,38.30
2018-12-21T21:33:18.588Z,32.17
2018-12-21T21:35:49.629Z,26.87
2018-12-21T21:38:20.685Z,35.43
2018-12-21T21:40:51.779Z,31.90
2018-12-21T21:43:22.814Z,36.10
2018-12-21T21:45:53.866Z,23.37
2018-12-21T21:48:24.979Z,30.10
2018-12-21T21:50:55.952Z,37.97
2018-12-21T21:53:26.967Z,34.67
2018-12-21T21:55:57.999Z,43.17
2018-12-21T21:58:29.007Z,44.27
2018-12-21T22:01:00.048Z,55.80
2018-12-21T22:03:31.081Z,51.07
2018-12-21T22:06:02.141Z,37.40
2018-12-21T22:08:33.242Z,46.77
2018-12-21T22:11:04.436Z,34.53
2018-12-21T22:13:35.780Z,41.33
2018-12-21T22:16:06.775Z,51.93
2018-12-21T22:18:38.153Z,33.47
2018-12-21T22:21:09.178Z,35.73
2018-12-21T22:23:40.200Z,35.10
2018-12-21T22:26:11.247Z,36.63
2018-12-21T22:28:42.624Z,31.57
2018-12-21T22:31:13.667Z,30.50
2018-12-21T22:33:44.709Z,25.47
2018-12-21T22:36:15.714Z,35.20
2018-12-21T22:38:46.725Z,39.00
2018-12-21T22:41:17.727Z,31.37
2018-12-21T22:43:48.772Z,40.87
2018-12-21T22:46:19.805Z,32.50
2018-12-21T22:48:50.813Z,35.23
2018-12-21T22:51:22.391Z,38.63
2018-12-21T22:53:53.418Z,42.30
2018-12-21T22:56:24.468Z,40.90
2018-12-21T22:58:55.484Z,40.60
2018-12-21T23:01:26.740Z,39.17
2018-12-21T23:03:57.794Z,43.60
2018-12-21T23:06:28.781Z,36.97
2018-12-21T23:08:59.792Z,45.70
2018-12-21T23:11:30.844Z,51.73
2018-12-21T23:14:01.886Z,46.30
2018-12-21T23:16:32.918Z,34.83
2018-12-21T23:19:04.254Z,42.13
2018-12-21T23:21:35.360Z,40.43
2018-12-21T23:24:06.360Z,37.27
2018-12-21T23:26:37.374Z,29.37
2018-12-21T23:29:08.439Z,41.10
2018-12-21T23:31:39.451Z,31.50
2018-12-21T23:34:11.134Z,40.13
2018-12-21T23:36:42.142Z,26.70
2018-12-21T23:39:13.167Z,31.73
2018-12-21T23:41:44.243Z,43.03
2018-12-21T23:44:15.243Z,49.87
2018-12-21T23:46:46.280Z,36.57
2018-12-21T23:49:17.343Z,40.13
2018-12-21T23:51:54.752Z,39.30
2018-12-21T23:54:25.788Z,42.73
2018-12-21T23:56:56.861Z,32.53
2018-12-21T23:59:27.821Z,42.40
